Soumagne, Belgium
Current Conditions -  °F | °C
As of 12:20 PM on Thursday 27 Nov 2014 (Local Time) from EBLG Reporting Station
Light Rain Light Rain  
Wind Chill: 46°   Ceiling: Unl
Heat Index: 48°   Visibility: 5mi
Dew Point: 46°   Wind: 5mph
Humidity: 93%   Direction: 140°SE
Pressure: 29.74"   Gusts: NA
Location:  50.61°N, 5.75°E
Report Text: EBLG 271120Z 14004KT 8000 -RA FEW042 09/08 Q1007 TEMPO 4000 RA BKN010
Loading
Personal Weather Stations






























Interactive Weather Map New forecast layout! Learn more

10-Day Weather Forecast

Advertisements
Track Severe Weather on mobile